Time;durP1;ratioP1;P1;durP2;ratioP2;P2;SDS_P1;SDS_P2;PMS_P1;PMS_P2;Temp;Humidity;BMP_temperature;BMP_pressure;BME280_temperature;BME280_humidity;BME280_pressure;Samples;Min_cycle;Max_cycle;Signal;HPM_P1;HPM_P2
2023/05/21 00:00:01;;;;;;;6.25;4.03;;;;;;;;;;5053089;28;20055;-66
2023/05/21 00:02:28;;;;;;;6.90;3.40;;;;;;;;;;5053640;28;20055;-66
2023/05/21 00:04:54;;;;;;;5.00;3.40;;;;;;;;;;5052902;28;20045;-66
2023/05/21 00:07:22;;;;;;;6.15;3.88;;;;;;;;;;5053729;28;20071;-66
2023/05/21 00:09:48;;;;;;;6.93;3.60;;;;;;;;;;5053704;28;20060;-66
2023/05/21 00:12:14;;;;;;;9.45;3.85;;;;;;;;;;5052312;28;20037;-66
2023/05/21 00:14:40;;;;;;;6.20;3.58;;;;;;;;;;5053871;28;20041;-66
2023/05/21 00:17:06;;;;;;;4.65;3.88;;;;;;;;;;5052489;28;20048;-66
2023/05/21 00:19:32;;;;;;;4.75;3.83;;;;;;;;;;5053515;28;20049;-66
2023/05/21 00:22:01;;;;;;;5.57;3.92;;;;;;;;;;5053338;28;20083;-67
2023/05/21 00:24:27;;;;;;;6.00;3.53;;;;;;;;;;5053674;28;20045;-67
2023/05/21 00:26:53;;;;;;;6.13;3.72;;;;;;;;;;5053634;28;20493;-66
2023/05/21 00:29:19;;;;;;;7.60;4.25;;;;;;;;;;5053547;28;20131;-66
2023/05/21 00:31:45;;;;;;;5.43;4.10;;;;;;;;;;5053426;28;20120;-66
2023/05/21 00:34:12;;;;;;;5.20;3.85;;;;;;;;;;5052943;28;20041;-66
2023/05/21 00:36:39;;;;;;;7.47;3.78;;;;;;;;;;5053194;28;20116;-66
2023/05/21 00:39:05;;;;;;;5.63;3.42;;;;;;;;;;5051957;28;20045;-66
2023/05/21 00:41:31;;;;;;;6.10;3.92;;;;;;;;;;5052058;28;20041;-66
2023/05/21 00:43:59;;;;;;;4.85;3.40;;;;;;;;;;5053290;28;20174;-66
2023/05/21 00:46:27;;;;;;;6.80;4.00;;;;;;;;;;5053270;28;20045;-66
2023/05/21 00:48:53;;;;;;;8.80;3.80;;;;;;;;;;5053084;28;20045;-66
2023/05/21 00:51:20;;;;;;;8.52;4.38;;;;;;;;;;5051776;28;20036;-66
2023/05/21 00:53:46;;;;;;;9.27;3.85;;;;;;;;;;5054117;28;20037;-66
2023/05/21 00:56:12;;;;;;;6.45;3.78;;;;;;;;;;5053049;28;20041;-66
2023/05/21 00:58:39;;;;;;;7.47;4.25;;;;;;;;;;5052877;28;20041;-66
2023/05/21 01:01:05;;;;;;;5.65;3.60;;;;;;;;;;5052849;28;20528;-66
2023/05/21 01:03:37;;;;;;;7.25;3.70;;;;;;;;;;5052717;28;20077;-66
2023/05/21 01:06:06;;;;;;;7.50;3.88;;;;;;;;;;5052611;28;20049;-66
2023/05/21 01:08:33;;;;;;;4.95;3.55;;;;;;;;;;5052676;28;20041;-66
2023/05/21 01:11:00;;;;;;;6.95;4.20;;;;;;;;;;5035866;28;20048;-66
2023/05/21 01:13:26;;;;;;;6.22;4.20;;;;;;;;;;5051149;28;20099;-66
2023/05/21 01:15:53;;;;;;;5.75;4.05;;;;;;;;;;5052641;28;20128;-66
2023/05/21 01:18:19;;;;;;;6.32;4.10;;;;;;;;;;5052490;28;20071;-66
2023/05/21 01:20:49;;;;;;;7.32;3.60;;;;;;;;;;5051296;28;20060;-66
2023/05/21 01:23:18;;;;;;;4.03;3.63;;;;;;;;;;5051180;28;20053;-66
2023/05/21 01:25:44;;;;;;;8.75;4.07;;;;;;;;;;5052587;28;20087;-66
2023/05/21 01:28:10;;;;;;;7.68;3.63;;;;;;;;;;5053466;28;20032;-66
2023/05/21 01:30:37;;;;;;;7.32;3.80;;;;;;;;;;5051509;28;20610;-66
2023/05/21 01:33:05;;;;;;;6.95;4.20;;;;;;;;;;5051064;28;20079;-66
2023/05/21 01:35:35;;;;;;;5.40;3.83;;;;;;;;;;5052553;28;20040;-66
2023/05/21 01:38:01;;;;;;;6.10;4.35;;;;;;;;;;5052295;28;20126;-66
2023/05/21 01:40:30;;;;;;;9.43;4.38;;;;;;;;;;5051073;28;20072;-66
2023/05/21 01:42:57;;;;;;;6.35;4.38;;;;;;;;;;5051024;28;20396;-66
2023/05/21 01:45:24;;;;;;;6.40;4.55;;;;;;;;;;5051677;28;20033;-66
2023/05/21 01:47:51;;;;;;;8.55;4.28;;;;;;;;;;5052199;28;20037;-66
2023/05/21 01:50:18;;;;;;;9.35;4.82;;;;;;;;;;5052041;28;20041;-66
2023/05/21 01:52:55;;;;;;;4.82;3.90;;;;;;;;;;5051530;28;20400;-65
2023/05/21 01:55:24;;;;;;;9.05;4.30;;;;;;;;;;5050693;28;20119;-66
2023/05/21 01:57:54;;;;;;;6.28;4.03;;;;;;;;;;5050506;28;20120;-66
2023/05/21 02:00:21;;;;;;;9.60;4.32;;;;;;;;;;5052107;28;20090;-66
2023/05/21 02:02:47;;;;;;;9.82;4.75;;;;;;;;;;5052220;28;20519;-66
2023/05/21 02:05:13;;;;;;;8.02;4.13;;;;;;;;;;5051593;28;20051;-66
2023/05/21 02:07:39;;;;;;;6.10;3.78;;;;;;;;;;5054164;28;20041;-66
2023/05/21 02:10:05;;;;;;;8.43;4.22;;;;;;;;;;5034014;28;20082;-67
2023/05/21 02:12:31;;;;;;;6.15;4.07;;;;;;;;;;5051386;28;20056;-66
2023/05/21 02:14:57;;;;;;;5.63;4.20;;;;;;;;;;5051929;28;20032;-66
2023/05/21 02:17:23;;;;;;;7.50;4.05;;;;;;;;;;5051796;28;20241;-65
2023/05/21 02:19:49;;;;;;;7.18;3.72;;;;;;;;;;5051568;28;20089;-67
2023/05/21 02:22:15;;;;;;;8.02;4.38;;;;;;;;;;5034338;28;20045;-66
2023/05/21 02:24:41;;;;;;;9.52;5.05;;;;;;;;;;5051656;28;20047;-66
2023/05/21 02:27:09;;;;;;;7.93;4.50;;;;;;;;;;5050385;28;20053;-66
2023/05/21 02:29:35;;;;;;;7.47;4.60;;;;;;;;;;5051623;28;20049;-66
2023/05/21 02:32:01;;;;;;;9.00;5.00;;;;;;;;;;5049933;28;20047;-65
2023/05/21 02:34:31;;;;;;;11.30;5.03;;;;;;;;;;5050521;28;20460;-66
2023/05/21 02:36:57;;;;;;;10.80;5.30;;;;;;;;;;5051475;28;20086;-66
2023/05/21 02:39:23;;;;;;;13.27;5.32;;;;;;;;;;5052462;28;20080;-66
2023/05/21 02:41:49;;;;;;;9.25;5.47;;;;;;;;;;5051121;28;20045;-67
2023/05/21 02:44:17;;;;;;;8.15;6.50;;;;;;;;;;5051640;28;20477;-66
2023/05/21 02:46:43;;;;;;;9.93;5.82;;;14.90;99.90;;;;;;5051487;28;20071;-66
2023/05/21 02:49:08;;;;;;;10.90;6.75;;;14.80;99.90;;;;;;5049908;28;20041;-66
2023/05/21 02:51:34;;;;;;;11.45;6.80;;;;;;;;;;5049775;28;20627;-65
2023/05/21 02:54:00;;;;;;;9.70;7.32;;;14.50;99.90;;;;;;5049754;28;20040;-66
2023/05/21 02:56:26;;;;;;;10.55;6.68;;;14.50;99.90;;;;;;5050813;28;20041;-66
2023/05/21 02:58:51;;;;;;;13.48;7.03;;;15.40;99.90;;;;;;5055374;28;20560;-66
2023/05/21 03:01:17;;;;;;;13.75;7.32;;;14.80;99.90;;;;;;5055037;28;20064;-66
2023/05/21 03:03:42;;;;;;;11.57;6.82;;;14.50;99.90;;;;;;5053273;28;20037;-66
2023/05/21 03:06:09;;;;;;;13.25;7.43;;;14.50;99.90;;;;;;5054908;28;20102;-66
2023/05/21 03:08:35;;;;;;;12.43;6.05;;;14.60;99.90;;;;;;5053559;28;20041;-66
2023/05/21 03:11:01;;;;;;;11.68;6.80;;;14.60;99.90;;;;;;5053578;28;20069;-66
2023/05/21 03:13:27;;;;;;;14.90;7.70;;;15.60;99.90;;;;;;5056061;28;20064;-66
2023/05/21 03:15:55;;;;;;;12.88;7.47;;;14.50;99.90;;;;;;5054969;28;20421;-66
2023/05/21 03:18:21;;;;;;;15.05;6.85;;;14.50;99.90;;;;;;5053653;28;20045;-66
2023/05/21 03:20:47;;;;;;;13.00;6.85;;;14.20;99.90;;;;;;5053933;28;20411;-66
2023/05/21 03:23:13;;;;;;;10.32;6.82;;;14.30;99.90;;;;;;5054524;28;20041;-66
2023/05/21 03:25:39;;;;;;;11.40;7.10;;;14.10;99.90;;;;;;5054738;28;20496;-65
2023/05/21 03:28:05;;;;;;;11.63;6.95;;;14.40;99.90;;;;;;5068440;28;20093;-66
2023/05/21 03:30:31;;;;;;;13.50;6.80;;;14.10;99.90;;;;;;5073085;28;20036;-66
2023/05/21 03:32:58;;;;;;;14.43;7.55;;;14.10;99.90;;;;;;5057645;28;20412;-66
2023/05/21 03:35:24;;;;;;;11.35;7.32;;;14.20;99.90;;;;;;5053348;28;20117;-66
2023/05/21 03:37:50;;;;;;;13.48;7.57;;;14.20;99.90;;;;;;5053059;28;20540;-66
2023/05/21 03:40:15;;;;;;;14.35;8.05;;;14.00;99.90;;;;;;5053020;28;20393;-66
2023/05/21 03:42:41;;;;;;;13.30;7.07;;;;;;;;;;5054327;28;20107;-66
2023/05/21 03:45:07;;;;;;;13.07;7.38;;;;;;;;;;5053229;28;20115;-66
2023/05/21 03:47:34;;;;;;;12.75;7.25;;;14.10;99.90;;;;;;5053218;28;20048;-66
2023/05/21 03:50:01;;;;;;;17.13;7.22;;;14.20;99.90;;;;;;5073021;28;20044;-66
2023/05/21 03:52:27;;;;;;;14.05;7.28;;;;;;;;;;5072539;28;20450;-66
2023/05/21 03:54:52;;;;;;;14.18;7.65;;;13.90;99.90;;;;;;5073264;28;20033;-66
2023/05/21 03:57:18;;;;;;;12.00;6.65;;;;;;;;;;5073798;28;20119;-66
2023/05/21 03:59:44;;;;;;;14.43;7.57;;;;;;;;;;5072933;28;20036;-66
2023/05/21 04:02:10;;;;;;;9.00;6.70;;;;;;;;;;5073910;28;20095;-66
2023/05/21 04:04:36;;;;;;;15.30;7.70;;;14.30;99.90;;;;;;5071039;28;20072;-66
2023/05/21 04:07:03;;;;;;;17.70;7.80;;;14.30;99.90;;;;;;5053756;28;20385;-66
2023/05/21 04:09:29;;;;;;;17.45;8.15;;;;;;;;;;5053072;28;20041;-67
2023/05/21 04:11:55;;;;;;;13.50;8.07;;;;;;;;;;5053592;28;20471;-66
2023/05/21 04:14:22;;;;;;;14.63;8.00;;;14.30;99.90;;;;;;5052640;28;20041;-66
2023/05/21 04:16:47;;;;;;;14.23;8.18;;;14.20;99.90;;;;;;5053857;28;20041;-66
2023/05/21 04:19:13;;;;;;;13.55;8.25;;;14.20;99.90;;;;;;5052537;28;20451;-67
2023/05/21 04:21:39;;;;;;;15.90;8.13;;;;;;;;;;5054235;28;20041;-66
2023/05/21 04:24:05;;;;;;;11.18;7.35;;;;;;;;;;5053735;28;20120;-66
2023/05/21 04:26:32;;;;;;;15.10;8.15;;;;;;;;;;5053682;28;20128;-66
2023/05/21 04:29:01;;;;;;;12.93;8.30;;;;;;;;;;5053623;28;20546;-66
2023/05/21 04:31:27;;;;;;;14.43;7.85;;;14.20;99.90;;;;;;5053363;28;20044;-66
2023/05/21 04:33:53;;;;;;;12.48;7.63;;;14.30;99.90;;;;;;5053499;28;20493;-66
2023/05/21 04:36:19;;;;;;;12.55;6.85;;;14.20;99.90;;;;;;5058983;28;20040;-66
2023/05/21 04:38:44;;;;;;;12.25;7.40;;;13.90;99.90;;;;;;5072672;28;20199;-66
2023/05/21 04:41:10;;;;;;;18.65;7.60;;;;;;;;;;5071410;28;20040;-66
2023/05/21 04:43:37;;;;;;;15.02;8.63;;;;;;;;;;5073288;28;20040;-66
2023/05/21 04:46:03;;;;;;;14.30;8.13;;;;;;;;;;5072015;28;20127;-66
2023/05/21 04:48:29;;;;;;;13.02;6.97;;;14.20;99.90;;;;;;5073116;28;20095;-66
2023/05/21 04:50:55;;;;;;;11.50;6.78;;;;;;;;;;5072720;28;20068;-67
2023/05/21 04:53:22;;;;;;;10.52;6.30;;;14.30;99.90;;;;;;5065582;28;20044;-66
2023/05/21 04:55:48;;;;;;;13.00;7.85;;;14.20;99.90;;;;;;5051790;28;20099;-66
2023/05/21 04:58:16;;;;;;;12.30;7.03;;;14.30;99.90;;;;;;5051744;28;20036;-66
2023/05/21 05:00:44;;;;;;;12.25;6.20;;;14.20;99.90;;;;;;5051835;28;20039;-66
2023/05/21 05:03:10;;;;;;;11.20;6.47;;;14.50;99.90;;;;;;5052702;28;20041;-66
2023/05/21 05:05:36;;;;;;;12.80;5.70;;;14.40;99.90;;;;;;5052205;28;20033;-66
2023/05/21 05:08:02;;;;;;;13.77;6.80;;;;;;;;;;5052779;28;20029;-66
2023/05/21 05:10:28;;;;;;;14.07;6.03;;;14.60;99.90;;;;;;5065231;28;20056;-66
2023/05/21 05:12:54;;;;;;;12.07;6.70;;;14.30;99.90;;;;;;5051632;28;20079;-66
2023/05/21 05:15:20;;;;;;;12.48;6.05;;;;;;;;;;5052159;28;20037;-66
2023/05/21 05:17:49;;;;;;;10.52;5.47;;;;;;;;;;5052281;28;20055;-67
2023/05/21 05:20:15;;;;;;;11.75;6.50;;;14.40;99.90;;;;;;5051015;28;20420;-66
2023/05/21 05:22:40;;;;;;;8.50;5.80;;;14.50;99.90;;;;;;5050856;28;20036;-66
2023/05/21 05:25:06;;;;;;;13.57;5.85;;;14.40;99.90;;;;;;5052702;28;20037;-66
2023/05/21 05:27:32;;;;;;;9.70;5.03;;;14.40;99.90;;;;;;5053155;28;20041;-66
2023/05/21 05:29:58;;;;;;;10.32;5.60;;;14.50;99.90;;;;;;5052425;28;20067;-66
2023/05/21 05:32:24;;;;;;;14.45;6.05;;;;;;;;;;5052038;28;20500;-66
2023/05/21 05:34:50;;;;;;;14.13;5.38;;;14.60;99.90;;;;;;5050572;28;20128;-66
2023/05/21 05:37:15;;;;;;;8.57;4.90;;;14.70;99.90;;;;;;5052068;28;20619;-66
2023/05/21 05:39:41;;;;;;;13.27;5.55;;;14.70;99.90;;;;;;5051734;28;20077;-66
2023/05/21 05:42:07;;;;;;;9.15;5.05;;;;;;;;;;5051637;28;20041;-66
2023/05/21 05:44:33;;;;;;;15.85;5.32;;;14.60;99.90;;;;;;5052589;28;20041;-66
2023/05/21 05:46:58;;;;;;;10.02;4.93;;;14.60;99.90;;;;;;5050499;28;20471;-66
2023/05/21 05:49:24;;;;;;;12.18;5.32;;;14.60;99.90;;;;;;5051880;28;20123;-66
2023/05/21 05:51:50;;;;;;;14.68;5.25;;;;;;;;;;5051706;28;20033;-66
2023/05/21 05:54:16;;;;;;;12.02;5.53;;;;;;;;;;5050821;28;20075;-66
2023/05/21 05:56:42;;;;;;;10.25;4.55;;;;;;;;;;5057647;28;20116;-66
2023/05/21 05:59:07;;;;;;;12.15;5.38;;;14.90;99.90;;;;;;5060416;28;20567;-67
2023/05/21 06:01:33;;;;;;;7.95;4.43;;;14.80;99.90;;;;;;5059199;28;20036;-66
2023/05/21 06:03:59;;;;;;;11.05;5.05;;;;;;;;;;5060832;28;20052;-66
2023/05/21 06:06:25;;;;;;;11.75;4.88;;;15.10;99.90;;;;;;5069700;28;20048;-66
2023/05/21 06:08:50;;;;;;;9.70;5.05;;;15.00;99.90;;;;;;5062326;28;20507;-66
2023/05/21 06:11:17;;;;;;;14.80;5.15;;;;;;;;;;5060368;28;20028;-66
2023/05/21 06:13:43;;;;;;;9.15;5.90;;;15.00;99.90;;;;;;5062000;28;20484;-66
2023/05/21 06:16:10;;;;;;;10.07;4.95;;;15.10;99.90;;;;;;5062157;28;20082;-66
2023/05/21 06:18:35;;;;;;;13.15;5.53;;;15.20;99.90;;;;;;5059579;28;20048;-66
2023/05/21 06:21:01;;;;;;;9.85;5.30;;;15.20;99.90;;;;;;5060667;28;20036;-66
2023/05/21 06:23:27;;;;;;;11.40;5.35;;;;;;;;;;5061607;28;20162;-67
2023/05/21 06:25:53;;;;;;;9.80;5.45;;;;;;;;;;5057581;28;20064;-66
2023/05/21 06:28:19;;;;;;;10.55;5.28;;;15.30;99.90;;;;;;5062130;28;20123;-66
2023/05/21 06:30:44;;;;;;;10.80;5.15;;;15.40;99.90;;;;;;5060192;28;20041;-66
2023/05/21 06:33:10;;;;;;;9.38;5.28;;;15.70;99.90;;;;;;5058459;28;20126;-66
2023/05/21 06:35:38;;;;;;;12.75;5.13;;;;;;;;;;5061418;28;20033;-67
2023/05/21 06:38:04;;;;;;;9.48;4.80;;;15.60;99.90;;;;;;5059439;28;20036;-67
2023/05/21 06:40:30;;;;;;;15.32;5.78;;;;;;;;;;5044068;28;20571;-66
2023/05/21 06:42:56;;;;;;;13.05;5.75;;;15.90;99.90;;;;;;5060134;28;20619;-66
2023/05/21 06:45:22;;;;;;;11.68;5.40;;;15.80;99.90;;;;;;5064227;28;20072;-66
2023/05/21 06:47:47;;;;;;;7.80;4.22;;;16.00;99.90;;;;;;5068060;28;20143;-67
2023/05/21 06:50:13;;;;;;;8.93;4.47;;;15.90;99.90;;;;;;5069724;28;20040;-66
2023/05/21 06:52:39;;;;;;;11.30;5.57;;;;;;;;;;5067806;28;20036;-66
2023/05/21 06:55:05;;;;;;;11.38;4.78;;;15.90;99.90;;;;;;5056289;28;20047;-66
2023/05/21 06:57:31;;;;;;;10.43;4.53;;;16.20;99.90;;;;;;5058803;28;20094;-66
2023/05/21 06:59:57;;;;;;;10.30;4.78;;;;;;;;;;5059756;28;20037;-66
2023/05/21 07:02:23;;;;;;;6.95;4.38;;;;;;;;;;5061348;28;20558;-66
2023/05/21 07:04:49;;;;;;;17.75;5.13;;;;;;;;;;5060730;28;20029;-66
2023/05/21 07:07:15;;;;;;;12.38;4.65;;;16.20;99.90;;;;;;5050977;28;20047;-67
2023/05/21 07:09:40;;;;;;;7.82;4.22;;;16.40;99.90;;;;;;5049921;28;20404;-67
2023/05/21 07:12:06;;;;;;;6.97;4.18;;;16.40;99.90;;;;;;5051357;28;20033;-66
2023/05/21 07:14:32;;;;;;;9.18;4.85;;;;;;;;;;5071147;28;20111;-66
2023/05/21 07:16:57;;;;;;;7.32;4.78;;;16.40;99.90;;;;;;5071358;28;20120;-66
2023/05/21 07:19:23;;;;;;;9.68;4.80;;;16.50;99.90;;;;;;5071475;28;20519;-66
2023/05/21 07:21:49;;;;;;;11.60;4.57;;;16.30;99.90;;;;;;5071106;28;20399;-67
2023/05/21 07:24:14;;;;;;;8.07;4.40;;;16.40;99.90;;;;;;5070439;28;20085;-66
2023/05/21 07:26:40;;;;;;;8.52;4.05;;;;;;;;;;5070941;28;20083;-67
2023/05/21 07:29:06;;;;;;;7.18;4.70;;;16.60;99.90;;;;;;5068740;28;20045;-67
2023/05/21 07:31:31;;;;;;;11.88;4.57;;;16.60;99.90;;;;;;5051171;28;20043;-66
2023/05/21 07:33:57;;;;;;;5.72;3.88;;;16.50;99.90;;;;;;5051176;28;20040;-67
2023/05/21 07:36:23;;;;;;;9.80;4.90;;;16.60;99.90;;;;;;5051876;28;20037;-66
2023/05/21 07:38:48;;;;;;;6.57;4.00;;;16.80;99.90;;;;;;5058135;28;20488;-66
2023/05/21 07:41:14;;;;;;;12.15;5.03;;;16.80;99.90;;;;;;5068693;28;20122;-66
2023/05/21 07:43:39;;;;;;;6.57;4.45;;;16.50;99.90;;;;;;5069942;28;20124;-67
2023/05/21 07:46:05;;;;;;;9.60;4.28;;;;;;;;;;5075240;28;20581;-67
2023/05/21 07:48:31;;;;;;;8.13;4.40;;;16.70;99.90;;;;;;5059958;28;20045;-67
2023/05/21 07:50:57;;;;;;;15.60;4.72;;;16.70;99.90;;;;;;5054385;28;20082;-67
2023/05/21 07:53:23;;;;;;;7.13;4.43;;;16.70;99.90;;;;;;5052924;28;20037;-67
2023/05/21 07:55:48;;;;;;;9.15;4.75;;;16.60;99.90;;;;;;5054347;28;20107;-66
2023/05/21 07:58:18;;;;;;;8.52;4.57;;;16.80;99.90;;;;;;5054103;28;20037;-67
2023/05/21 08:00:46;;;;;;;7.32;4.22;;;16.50;99.90;;;;;;5054468;28;20033;-67
2023/05/21 08:03:15;;;;;;;9.73;4.43;;;16.70;99.90;;;;;;5052648;28;20116;-67
2023/05/21 08:05:47;;;;;;;8.95;4.32;;;16.90;99.90;;;;;;5054898;28;20114;-67
2023/05/21 08:08:16;;;;;;;7.80;4.38;;;16.80;99.90;;;;;;5055691;28;20524;-67
2023/05/21 08:10:41;;;;;;;7.85;4.18;;;16.90;99.90;;;;;;5056483;28;20578;-66
2023/05/21 08:13:07;;;;;;;8.55;4.50;;;17.00;99.90;;;;;;5055215;28;20079;-66
2023/05/21 08:15:33;;;;;;;10.93;5.03;;;17.10;99.90;;;;;;5072707;28;20052;-66
2023/05/21 08:17:59;;;;;;;13.90;4.55;;;;;;;;;;5073754;28;20515;-66
2023/05/21 08:20:25;;;;;;;12.27;4.38;;;17.40;99.90;;;;;;5060225;28;20041;-67
2023/05/21 08:22:52;;;;;;;8.77;3.55;;;;;;;;;;5063429;28;20112;-67
2023/05/21 08:25:18;;;;;;;6.40;4.55;;;17.60;99.90;;;;;;5062069;28;20415;-66
2023/05/21 08:27:44;;;;;;;9.43;4.65;;;17.50;99.90;;;;;;5063646;28;20028;-66
2023/05/21 08:30:10;;;;;;;7.07;4.05;;;17.70;99.90;;;;;;5064934;28;20041;-66
2023/05/21 08:32:36;;;;;;;9.88;4.30;;;17.70;99.90;;;;;;5063835;28;20044;-67
2023/05/21 08:35:02;;;;;;;10.48;4.40;;;17.80;99.90;;;;;;5062272;28;20037;-67
2023/05/21 08:37:28;;;;;;;8.02;3.92;;;17.80;99.90;;;;;;5063143;28;20446;-66
2023/05/21 08:39:54;;;;;;;6.60;3.85;;;;;;;;;;5061059;28;20041;-67
2023/05/21 08:42:38;;;;;;;5.78;3.55;;;17.90;99.90;;;;;;5062963;28;20044;-67
2023/05/21 08:45:07;;;;;;;6.43;3.70;;;17.90;99.90;;;;;;5070258;28;20044;-67
2023/05/21 08:47:35;;;;;;;8.50;3.55;;;17.80;99.90;;;;;;5052675;28;20531;-67
2023/05/21 08:50:08;;;;;;;6.47;3.35;;;17.90;99.90;;;;;;5054795;28;20041;-66
2023/05/21 08:52:34;;;;;;;7.13;3.38;;;;;;;;;;5066907;28;20147;-66
2023/05/21 08:55:02;;;;;;;7.47;3.83;;;17.60;99.90;;;;;;5072917;28;20127;-66
2023/05/21 08:57:30;;;;;;;6.60;3.10;;;17.20;99.90;;;;;;5067638;28;20067;-66
2023/05/21 09:00:00;;;;;;;7.22;4.20;;;17.40;99.90;;;;;;5052581;28;20045;-67
2023/05/21 09:02:26;;;;;;;6.55;4.13;;;;;;;;;;5049310;28;20500;-66
2023/05/21 09:04:56;;;;;;;8.48;3.40;;;17.70;99.90;;;;;;5051620;28;20133;-67
2023/05/21 09:07:29;;;;;;;5.38;3.13;;;17.70;99.90;;;;;;5051432;28;20049;-66
2023/05/21 09:10:04;;;;;;;6.43;3.75;;;17.90;99.90;;;;;;5052602;28;20512;-67
2023/05/21 09:12:30;;;;;;;7.45;3.22;;;17.90;99.90;;;;;;5051301;28;20111;-67
2023/05/21 09:14:57;;;;;;;10.63;3.53;;;17.40;99.90;;;;;;5053874;28;20112;-66
2023/05/21 09:17:23;;;;;;;7.25;3.33;;;16.90;99.90;;;;;;5052513;28;20037;-67
2023/05/21 09:20:13;;;;;;;9.05;3.72;;;17.40;99.90;;;;;;5051446;28;20128;-67
2023/05/21 09:22:46;;;;;;;7.10;3.35;;;17.50;99.90;;;;;;5052418;28;20044;-67
2023/05/21 09:25:16;;;;;;;6.82;3.55;;;17.70;99.90;;;;;;5051309;28;20504;-67
2023/05/21 09:27:43;;;;;;;10.00;4.03;;;18.10;99.90;;;;;;5051181;28;20041;-66
2023/05/21 09:30:13;;;;;;;9.30;3.70;;;17.60;99.90;;;;;;5052323;28;20072;-67
2023/05/21 09:32:40;;;;;;;7.30;3.78;;;17.90;99.90;;;;;;5053301;28;20041;-67
2023/05/21 09:35:08;;;;;;;6.63;2.85;;;17.70;99.90;;;;;;5051307;28;20439;-67
2023/05/21 09:37:46;;;;;;;8.55;3.85;;;17.20;99.90;;;;;;5051005;28;20088;-67
2023/05/21 09:40:19;;;;;;;7.22;3.70;;;17.80;99.90;;;;;;5052324;28;20389;-66
2023/05/21 09:42:46;;;;;;;6.60;3.53;;;18.00;99.90;;;;;;5050923;28;20424;-67
2023/05/21 09:45:16;;;;;;;8.43;4.00;;;17.60;99.90;;;;;;5051240;28;20052;-67
2023/05/21 09:47:42;;;;;;;6.13;3.22;;;17.70;99.90;;;;;;5052147;28;20041;-67
2023/05/21 09:50:27;;;;;;;7.72;3.40;;;18.00;99.90;;;;;;5053239;28;20045;-67
2023/05/21 09:52:54;;;;;;;8.20;3.30;;;17.50;99.90;;;;;;5050485;28;20045;-67
2023/05/21 09:55:24;;;;;;;8.23;4.03;;;17.60;99.90;;;;;;5052214;28;20049;-68
2023/05/21 09:57:51;;;;;;;6.25;3.45;;;19.20;99.90;;;;;;5051945;28;20055;-67
2023/05/21 10:00:27;;;;;;;11.65;4.38;;;17.80;99.90;;;;;;5050700;28;20045;-67
2023/05/21 10:02:59;;;;;;;9.32;3.95;;;17.90;99.90;;;;;;5051659;28;20501;-67
2023/05/21 10:05:27;;;;;;;15.00;3.83;;;18.50;99.90;;;;;;5052908;28;20057;-67
2023/05/21 10:07:57;;;;;;;6.70;3.75;;;18.40;99.90;;;;;;5050948;28;20057;-67
2023/05/21 10:10:23;;;;;;;9.90;3.47;;;18.80;99.90;;;;;;5050477;28;20053;-67
2023/05/21 10:12:58;;;;;;;10.93;3.83;;;19.00;99.90;;;;;;5050283;28;20159;-67
2023/05/21 10:15:26;;;;;;;7.10;3.83;;;19.00;99.90;;;;;;5051869;28;20041;-67
2023/05/21 10:17:55;;;;;;;6.53;3.35;;;18.70;99.90;;;;;;5050291;28;20045;-67
2023/05/21 10:20:21;;;;;;;6.22;3.50;;;18.70;99.90;;;;;;5050374;28;20033;-67
2023/05/21 10:22:48;;;;;;;10.25;3.67;;;18.60;99.90;;;;;;5052552;28;20048;-66
2023/05/21 10:25:15;;;;;;;5.10;3.22;;;18.80;99.90;;;;;;5050257;28;20148;-67
2023/05/21 10:27:40;;;;;;;10.13;3.55;;;19.10;99.90;;;;;;5051551;28;20128;-67
2023/05/21 10:30:07;;;;;;;8.38;3.50;;;18.80;99.90;;;;;;5050271;28;20120;-67
2023/05/21 10:32:33;;;;;;;6.18;3.88;;;18.90;99.90;;;;;;5051189;28;20111;-67
2023/05/21 10:35:01;;;;;;;9.95;3.30;;;18.90;99.90;;;;;;5050233;28;20037;-67
2023/05/21 10:37:27;;;;;;;7.30;3.35;;;18.80;99.90;;;;;;5051524;28;20112;-68
2023/05/21 10:39:53;;;;;;;8.40;3.85;;;19.10;99.90;;;;;;5052618;28;20037;-66
2023/05/21 10:42:31;;;;;;;7.18;3.72;;;19.00;99.90;;;;;;5049823;28;20079;-67
2023/05/21 10:45:02;;;;;;;8.68;3.80;;;19.00;99.90;;;;;;5051263;28;20124;-67
2023/05/21 10:47:54;;;;;;;6.03;3.58;;;19.10;99.90;;;;;;5051587;28;20041;-67
2023/05/21 10:50:25;;;;;;;8.18;3.47;;;18.80;99.90;;;;;;5042909;28;20136;-67
2023/05/21 10:53:15;;;;;;;6.55;3.50;;;19.00;99.90;;;;;;5051111;28;20041;-67
2023/05/21 10:55:50;;;;;;;7.93;3.40;;;19.80;99.90;;;;;;5050027;28;20045;-66
2023/05/21 10:59:02;;;;;;;7.70;3.83;;;19.10;99.90;;;;;;5051127;28;20049;-67
2023/05/21 11:01:32;;;;;;;7.05;3.47;;;19.20;99.90;;;;;;5042904;28;20401;-66
2023/05/21 11:03:58;;;;;;;7.88;3.70;;;19.80;99.90;;;;;;5051253;28;20056;-67
2023/05/21 11:06:25;;;;;;;9.20;3.85;;;19.90;99.90;;;;;;5051230;28;20517;-67
2023/05/21 11:08:52;;;;;;;8.48;3.95;;;18.90;99.90;;;;;;5051111;28;20044;-66
2023/05/21 11:11:49;;;;;;;8.98;3.70;;;19.10;99.90;;;;;;5051254;28;20045;-67
2023/05/21 11:14:34;;;;;;;6.97;3.70;;;19.30;99.90;;;;;;5051261;28;20047;-67
2023/05/21 11:17:08;;;;;;;10.20;3.58;;;20.10;99.90;;;;;;5050393;28;20055;-67
2023/05/21 11:19:41;;;;;;;7.88;3.88;;;18.80;99.90;;;;;;5053695;28;20067;-68
2023/05/21 11:22:20;;;;;;;;;;;20.00;99.90;;;;;;5053928;28;20128;-67
2023/05/21 11:24:46;;;;;;;8.80;3.78;;;19.50;99.90;;;;;;5053518;28;19924;-66
2023/05/21 11:27:11;;;;;;;5.93;2.90;;;19.70;99.90;;;;;;5054883;28;20566;-67
2023/05/21 11:29:43;;;;;;;6.90;3.38;;;19.50;99.90;;;;;;5053341;28;20085;-67
2023/05/21 11:32:10;;;;;;;7.05;3.28;;;19.50;99.90;;;;;;5054564;28;20145;-67
2023/05/21 11:34:46;;;;;;;7.30;3.70;;;18.80;99.90;;;;;;5053434;28;20041;-68
2023/05/21 11:37:19;;;;;;;9.18;3.53;;;18.90;99.90;;;;;;5054428;28;20037;-67
2023/05/21 11:39:46;;;;;;;7.40;3.03;;;19.50;99.90;;;;;;5053245;28;20053;-67
2023/05/21 11:42:12;;;;;;;9.07;3.28;;;19.60;99.90;;;;;;5054401;28;20045;-66
2023/05/21 11:44:46;;;;;;;7.28;3.45;;;19.30;99.90;;;;;;5054666;28;20523;-66
2023/05/21 11:47:13;;;;;;;7.35;4.22;;;19.20;99.90;;;;;;5054430;28;20040;-67
2023/05/21 11:49:39;;;;;;;7.88;3.50;;;19.50;99.90;;;;;;5053007;28;20416;-67
2023/05/21 11:52:06;;;;;;;8.30;3.88;;;20.00;99.90;;;;;;5053841;28;20041;-67
2023/05/21 11:54:37;;;;;;;7.07;3.97;;;19.30;99.90;;;;;;5053046;28;20041;-66
2023/05/21 11:57:06;;;;;;;8.75;3.40;;;19.60;99.90;;;;;;5053019;28;20477;-66
2023/05/21 11:59:33;;;;;;;8.48;3.47;;;19.60;99.90;;;;;;5054262;28;20036;-66
2023/05/21 12:01:59;;;;;;;13.05;3.53;;;19.50;99.90;;;;;;5053868;28;20044;-67
2023/05/21 12:04:35;;;;;;;11.38;4.45;;;19.80;99.90;;;;;;5053101;28;20052;-67
2023/05/21 12:07:08;;;;;;;7.03;4.30;;;19.50;99.90;;;;;;5054368;28;20404;-66
2023/05/21 12:09:44;;;;;;;8.88;4.13;;;19.50;99.90;;;;;;5053857;28;20059;-67
2023/05/21 12:12:15;;;;;;;10.18;3.55;;;19.90;99.90;;;;;;5052794;28;20439;-67
2023/05/21 12:14:48;;;;;;;6.93;4.10;;;19.90;99.90;;;;;;5053892;28;20041;-67
2023/05/21 12:17:19;;;;;;;7.18;4.18;;;20.00;99.90;;;;;;5052818;28;20044;-67
2023/05/21 12:19:46;;;;;;;10.25;3.80;;;20.20;99.90;;;;;;5052739;28;20102;-66
2023/05/21 12:22:12;;;;;;;11.82;4.22;;;20.50;99.90;;;;;;5052130;28;20041;-67
2023/05/21 12:24:38;;;;;;;11.15;3.83;;;20.50;99.90;;;;;;5053507;28;20124;-67
2023/05/21 12:27:09;;;;;;;7.38;4.28;;;21.20;99.90;;;;;;5053443;28;20479;-67
2023/05/21 12:29:40;;;;;;;10.00;5.07;;;20.90;99.90;;;;;;5051438;28;20136;-67
2023/05/21 12:32:08;;;;;;;9.02;5.63;;;20.70;99.90;;;;;;5052110;28;20511;-67
2023/05/21 12:34:43;;;;;;;9.40;4.18;;;20.70;99.90;;;;;;5052549;28;20039;-66
2023/05/21 12:37:11;;;;;;;9.13;4.20;;;20.50;99.90;;;;;;5052160;28;20044;-67
2023/05/21 12:39:51;;;;;;;6.68;4.35;;;20.60;99.90;;;;;;5052180;28;20083;-68
2023/05/21 12:42:24;;;;;;;9.82;4.25;;;20.40;99.90;;;;;;5054462;28;20041;-67
2023/05/21 12:44:51;;;;;;;6.80;4.30;;;20.80;99.90;;;;;;5052229;28;20505;-68
2023/05/21 12:47:17;;;;;;;8.88;5.13;;;20.60;99.90;;;;;;5053225;28;20497;-68
2023/05/21 12:49:46;;;;;;;7.35;3.90;;;20.50;99.90;;;;;;5035384;28;20047;-67
2023/05/21 12:52:13;;;;;;;6.40;4.20;;;20.80;99.90;;;;;;5051605;28;20093;-67
2023/05/21 12:54:41;;;;;;;8.27;4.68;;;20.60;99.90;;;;;;5053444;28;20403;-67
2023/05/21 12:57:24;;;;;;;10.20;4.82;;;20.80;99.90;;;;;;5052050;28;20045;-67
2023/05/21 12:59:59;;;;;;;7.33;5.30;;;20.90;99.90;;;;;;5054230;28;20120;-67
2023/05/21 13:02:26;;;;;;;9.75;4.90;;;20.90;99.90;;;;;;5052701;28;20044;-67
2023/05/21 13:05:02;;;;;;;11.40;5.00;;;21.10;99.90;;;;;;5053152;28;20515;-67
2023/05/21 13:07:30;;;;;;;13.07;6.55;;;21.00;99.90;;;;;;5052820;28;20048;-67
2023/05/21 13:09:57;;;;;;;11.70;5.20;;;21.00;99.90;;;;;;5051702;28;20120;-67
2023/05/21 13:12:28;;;;;;;11.90;6.30;;;20.70;99.90;;;;;;5051347;28;20041;-67
2023/05/21 13:14:55;;;;;;;9.43;6.28;;;20.60;99.90;;;;;;5051536;28;20036;-67
2023/05/21 13:17:22;;;;;;;8.98;5.95;;;20.60;99.90;;;;;;5068709;28;20434;-67
2023/05/21 13:20:11;;;;;;;10.50;6.35;;;20.30;99.90;;;;;;5071725;28;20056;-67
2023/05/21 13:22:42;;;;;;;10.27;7.22;;;20.00;99.90;;;;;;5071245;28;20065;-66